createdAt,value
2023-09-14T00:01:19.802Z,99.90
2023-09-14T00:03:48.271Z,99.90
2023-09-14T00:06:16.184Z,99.90
2023-09-14T00:08:44.497Z,99.90
2023-09-14T00:11:13.187Z,99.90
2023-09-14T00:13:41.734Z,99.90
2023-09-14T00:16:09.706Z,99.90
2023-09-14T00:18:37.894Z,99.90
2023-09-14T00:21:05.658Z,99.90
2023-09-14T00:23:33.715Z,99.90
2023-09-14T00:26:01.529Z,99.90
2023-09-14T00:28:30.522Z,99.90
2023-09-14T00:30:58.517Z,99.90
2023-09-14T00:33:26.537Z,99.90
2023-09-14T00:35:54.337Z,99.90
2023-09-14T00:38:23.611Z,99.90
2023-09-14T00:40:52.917Z,99.90
2023-09-14T00:43:21.341Z,99.90
2023-09-14T00:45:49.342Z,99.90
2023-09-14T00:48:18.795Z,99.90
2023-09-14T00:50:46.730Z,99.90
2023-09-14T00:53:17.047Z,99.90
2023-09-14T00:55:45.956Z,99.90
2023-09-14T00:58:17.277Z,99.90
2023-09-14T01:00:46.216Z,99.90
2023-09-14T01:03:15.456Z,99.90
2023-09-14T01:05:46.980Z,99.90
2023-09-14T01:08:15.049Z,99.90
2023-09-14T01:10:44.529Z,99.90
2023-09-14T01:13:29.243Z,99.90
2023-09-14T01:16:08.664Z,99.90
2023-09-14T01:18:46.888Z,99.90
2023-09-14T01:21:31.089Z,99.90
2023-09-14T01:24:10.016Z,99.90
2023-09-14T01:26:38.518Z,99.90
2023-09-14T01:29:06.647Z,99.90
2023-09-14T01:31:34.593Z,99.90
2023-09-14T01:34:03.713Z,99.90
2023-09-14T01:37:05.576Z,99.90
2023-09-14T01:39:36.148Z,99.90
2023-09-14T01:42:04.984Z,99.90
2023-09-14T01:44:34.129Z,99.90
2023-09-14T01:47:02.309Z,99.90
2023-09-14T01:49:30.494Z,99.90
2023-09-14T01:51:58.502Z,99.90
2023-09-14T01:54:29.898Z,99.90
2023-09-14T01:56:57.623Z,99.90
2023-09-14T01:59:25.700Z,99.90
2023-09-14T02:01:53.447Z,99.90
2023-09-14T02:04:21.515Z,99.90
2023-09-14T02:06:49.240Z,99.90
2023-09-14T02:09:17.327Z,99.90
2023-09-14T02:11:45.203Z,99.90
2023-09-14T02:14:13.215Z,99.90
2023-09-14T02:16:40.951Z,99.90
2023-09-14T02:19:09.058Z,99.90
2023-09-14T02:21:36.934Z,99.90
2023-09-14T02:24:05.208Z,99.90
2023-09-14T02:26:32.886Z,99.90
2023-09-14T02:29:04.404Z,99.90
2023-09-14T02:31:32.838Z,99.90
2023-09-14T02:34:00.978Z,99.90
2023-09-14T02:36:28.860Z,99.90
2023-09-14T02:38:57.136Z,99.90
2023-09-14T02:41:24.948Z,99.90
2023-09-14T02:43:53.027Z,99.90
2023-09-14T02:46:20.875Z,99.90
2023-09-14T02:48:49.522Z,99.90
2023-09-14T02:51:17.862Z,99.90
2023-09-14T02:53:48.055Z,99.90
2023-09-14T02:56:15.873Z,99.90
2023-09-14T02:58:44.093Z,99.90
2023-09-14T03:01:12.571Z,99.90
2023-09-14T03:03:42.326Z,99.90
2023-09-14T03:06:10.103Z,99.90
2023-09-14T03:08:38.751Z,99.90
2023-09-14T03:11:06.643Z,99.90
2023-09-14T03:13:34.943Z,99.90
2023-09-14T03:16:05.500Z,99.90
2023-09-14T03:18:33.776Z,99.90
2023-09-14T03:21:01.754Z,99.90
2023-09-14T03:23:30.710Z,99.90
2023-09-14T03:25:58.659Z,99.90
2023-09-14T03:28:27.109Z,99.90
2023-09-14T03:30:55.822Z,99.90
2023-09-14T03:33:24.175Z,99.90
2023-09-14T03:35:54.386Z,99.90
2023-09-14T03:38:22.454Z,99.90
2023-09-14T03:40:50.326Z,99.90
2023-09-14T03:43:18.323Z,99.90
2023-09-14T03:45:46.158Z,99.90
2023-09-14T03:48:14.456Z,99.90
2023-09-14T03:50:42.650Z,99.90
2023-09-14T03:53:11.652Z,99.90
2023-09-14T03:55:42.786Z,99.90
2023-09-14T03:58:11.096Z,99.90
2023-09-14T04:00:39.641Z,99.90
2023-09-14T04:03:09.314Z,99.90
2023-09-14T04:05:37.431Z,99.90
2023-09-14T04:08:06.226Z,99.90
2023-09-14T04:10:34.047Z,99.90
2023-09-14T04:13:36.528Z,99.90
2023-09-14T04:16:08.303Z,99.90
2023-09-14T04:18:40.099Z,99.90
2023-09-14T04:21:08.768Z,99.90
2023-09-14T04:23:36.908Z,99.90
2023-09-14T04:26:07.284Z,99.90
2023-09-14T04:28:36.691Z,99.90
2023-09-14T04:31:06.375Z,99.90
2023-09-14T04:33:36.415Z,99.90
2023-09-14T04:36:06.540Z,99.90
2023-09-14T04:38:35.982Z,99.90
2023-09-14T04:41:06.045Z,99.90
2023-09-14T04:43:34.954Z,99.90
2023-09-14T04:46:04.782Z,99.90
2023-09-14T04:48:33.729Z,99.90
2023-09-14T04:51:01.578Z,99.90
2023-09-14T04:53:29.813Z,99.90
2023-09-14T04:55:58.968Z,99.90
2023-09-14T04:58:27.664Z,99.90
2023-09-14T05:00:56.404Z,99.90
2023-09-14T05:03:25.459Z,99.90
2023-09-14T05:05:55.949Z,99.90
2023-09-14T05:08:24.548Z,99.90
2023-09-14T05:10:55.431Z,99.90
2023-09-14T05:13:26.152Z,99.90
2023-09-14T05:15:54.444Z,99.90
2023-09-14T05:18:26.800Z,99.90
2023-09-14T05:20:54.829Z,99.90
2023-09-14T05:23:23.073Z,99.90
2023-09-14T05:25:51.317Z,99.90
2023-09-14T05:28:19.753Z,99.90
2023-09-14T05:30:47.664Z,99.90
2023-09-14T05:33:15.717Z,99.90
2023-09-14T05:35:45.205Z,99.90
2023-09-14T05:38:13.983Z,99.90
2023-09-14T05:40:41.776Z,99.90
2023-09-14T05:43:09.829Z,99.90
2023-09-14T05:45:38.145Z,99.90
2023-09-14T05:48:06.899Z,99.90
2023-09-14T05:50:36.585Z,99.90
2023-09-14T05:53:05.871Z,99.90
2023-09-14T05:55:33.998Z,99.90
2023-09-14T05:58:02.820Z,99.90
2023-09-14T06:00:30.803Z,99.90
2023-09-14T06:03:00.384Z,99.90
2023-09-14T06:05:28.228Z,99.90
2023-09-14T06:07:56.489Z,99.90
2023-09-14T06:10:27.005Z,99.90
2023-09-14T06:12:56.438Z,99.90
2023-09-14T06:15:24.578Z,99.90
2023-09-14T06:17:52.776Z,99.90
2023-09-14T06:20:20.638Z,99.90
2023-09-14T06:22:48.740Z,99.90
2023-09-14T06:25:16.788Z,99.90
2023-09-14T06:27:45.560Z,99.90
2023-09-14T06:30:13.661Z,99.90
2023-09-14T06:32:41.817Z,99.90
2023-09-14T06:35:10.389Z,99.90
2023-09-14T06:37:38.532Z,99.90
2023-09-14T06:40:08.302Z,99.90
2023-09-14T06:42:37.239Z,99.90
2023-09-14T06:45:07.364Z,99.90
2023-09-14T06:47:35.607Z,99.90
2023-09-14T06:50:05.184Z,99.90
2023-09-14T06:52:33.958Z,99.90
2023-09-14T06:55:02.200Z,99.90
2023-09-14T06:57:31.532Z,99.90
2023-09-14T06:59:59.641Z,99.90
2023-09-14T07:02:28.337Z,99.90
2023-09-14T07:04:56.888Z,99.90
2023-09-14T07:07:25.890Z,99.90
2023-09-14T07:09:53.882Z,99.90
2023-09-14T07:12:21.954Z,99.90
2023-09-14T07:14:52.143Z,99.90
2023-09-14T07:17:22.910Z,99.90
2023-09-14T07:19:51.388Z,99.90
2023-09-14T07:22:20.764Z,99.90
2023-09-14T07:24:48.904Z,99.90
2023-09-14T07:27:18.196Z,99.90
2023-09-14T07:29:47.257Z,99.90
2023-09-14T07:32:15.614Z,99.90
2023-09-14T07:34:43.908Z,99.90
2023-09-14T07:37:12.071Z,99.90
2023-09-14T07:39:39.952Z,99.90
2023-09-14T07:42:08.280Z,99.90
2023-09-14T07:44:36.295Z,99.90
2023-09-14T07:47:05.269Z,99.90
2023-09-14T07:49:33.396Z,99.90
2023-09-14T07:52:01.617Z,99.90
2023-09-14T07:54:29.701Z,99.90
2023-09-14T07:56:58.026Z,99.90
2023-09-14T07:59:26.055Z,99.90
2023-09-14T08:01:54.423Z,99.90
2023-09-14T08:04:23.516Z,99.90
2023-09-14T08:06:52.674Z,99.90
2023-09-14T08:10:37.187Z,99.90
2023-09-14T08:13:05.529Z,99.90
2023-09-14T08:15:33.526Z,99.90
2023-09-14T08:18:01.822Z,99.90
2023-09-14T08:20:29.700Z,99.90
2023-09-14T08:22:57.921Z,99.90
2023-09-14T08:25:25.953Z,99.90
2023-09-14T08:27:54.144Z,99.90
2023-09-14T08:30:22.661Z,99.90
2023-09-14T08:32:50.865Z,99.90
2023-09-14T08:35:27.200Z,99.90
2023-09-14T08:37:56.555Z,99.10
2023-09-14T08:40:25.427Z,98.70
2023-09-14T08:42:55.709Z,98.00
2023-09-14T08:45:31.963Z,97.30
2023-09-14T08:48:02.907Z,96.90
2023-09-14T08:50:33.273Z,96.70
2023-09-14T08:53:02.275Z,95.90
2023-09-14T08:55:32.951Z,96.00
2023-09-14T08:58:02.129Z,96.20
2023-09-14T09:00:31.659Z,96.00
2023-09-14T09:03:00.179Z,96.40
2023-09-14T09:05:28.840Z,97.00
2023-09-14T09:07:58.226Z,97.60
2023-09-14T09:10:29.187Z,98.30
2023-09-14T09:13:04.324Z,98.50
2023-09-14T09:15:36.257Z,98.90
2023-09-14T09:18:09.169Z,99.20
2023-09-14T09:20:41.280Z,98.30
2023-09-14T09:23:10.707Z,97.20
2023-09-14T09:25:54.555Z,96.00
2023-09-14T09:28:30.990Z,94.50
2023-09-14T09:30:59.023Z,93.30
2023-09-14T09:33:37.845Z,92.50
2023-09-14T09:36:19.459Z,91.70
2023-09-14T09:38:49.355Z,90.80
2023-09-14T09:41:17.697Z,90.80
2023-09-14T09:43:50.984Z,91.30
2023-09-14T09:46:21.624Z,91.40
2023-09-14T09:48:50.955Z,91.30
2023-09-14T09:51:23.295Z,91.60
2023-09-14T09:54:09.426Z,91.70
2023-09-14T09:56:40.135Z,92.40
2023-09-14T09:59:11.411Z,93.00
2023-09-14T10:01:45.749Z,93.40
2023-09-14T10:04:17.011Z,93.70
2023-09-14T10:06:58.408Z,93.50
2023-09-14T10:09:33.329Z,92.90
2023-09-14T10:12:04.674Z,92.30
2023-09-14T10:14:35.093Z,91.40
2023-09-14T10:17:09.208Z,90.80
2023-09-14T10:19:41.109Z,90.20
2023-09-14T10:22:10.845Z,89.20
2023-09-14T10:24:39.535Z,88.30
2023-09-14T10:27:09.937Z,88.00
2023-09-14T10:29:40.708Z,88.10
2023-09-14T10:32:16.299Z,87.80
2023-09-14T10:35:00.144Z,86.50
2023-09-14T10:37:35.683Z,85.00
2023-09-14T10:40:06.057Z,84.00
2023-09-14T10:42:33.955Z,83.40
2023-09-14T10:45:03.662Z,83.00
2023-09-14T10:47:37.804Z,82.60
2023-09-14T10:50:08.014Z,81.70
2023-09-14T10:52:36.298Z,81.10
2023-09-14T10:55:10.064Z,80.60
2023-09-14T10:57:41.885Z,80.10
2023-09-14T11:00:50.782Z,79.90
2023-09-14T11:03:26.098Z,78.80
2023-09-14T11:05:57.716Z,78.00
2023-09-14T11:08:30.114Z,77.30
2023-09-14T11:11:02.527Z,76.30
2023-09-14T11:13:37.126Z,75.10
2023-09-14T11:16:19.809Z,74.10
2023-09-14T11:18:50.313Z,73.20
2023-09-14T11:21:38.283Z,72.70
2023-09-14T11:24:09.947Z,72.20
2023-09-14T11:26:46.140Z,71.40
2023-09-14T11:29:16.067Z,70.90
2023-09-14T11:32:01.479Z,70.00
2023-09-14T11:34:39.219Z,69.00
2023-09-14T11:37:14.934Z,68.20
2023-09-14T11:39:57.878Z,67.50
2023-09-14T11:42:33.952Z,67.10
2023-09-14T11:45:07.483Z,66.60
2023-09-14T11:47:41.069Z,65.70
2023-09-14T11:50:11.956Z,65.30
2023-09-14T11:52:42.452Z,64.70
2023-09-14T11:55:16.453Z,64.20
2023-09-14T11:57:45.565Z,64.20
2023-09-14T12:00:15.071Z,64.60
2023-09-14T12:02:43.441Z,64.80
2023-09-14T12:05:11.594Z,64.60
2023-09-14T12:07:39.958Z,64.20
2023-09-14T12:10:25.219Z,63.90
2023-09-14T12:12:53.570Z,63.90
2023-09-14T12:15:22.870Z,64.20
2023-09-14T12:17:52.609Z,64.30
2023-09-14T12:20:21.034Z,64.20
2023-09-14T12:22:49.450Z,64.10
2023-09-14T12:25:19.090Z,63.60
2023-09-14T12:27:47.946Z,63.20
2023-09-14T12:30:17.682Z,63.00
2023-09-14T12:32:46.371Z,62.90
2023-09-14T12:35:17.613Z,62.60
2023-09-14T12:37:46.479Z,62.50
2023-09-14T12:40:15.254Z,62.00
2023-09-14T12:42:44.576Z,61.60
2023-09-14T12:45:20.873Z,61.20
2023-09-14T12:47:49.945Z,61.70
2023-09-14T12:50:19.015Z,59.80
2023-09-14T12:52:48.715Z,59.20
2023-09-14T12:55:18.474Z,58.80
2023-09-14T12:57:48.912Z,58.60
2023-09-14T13:00:19.000Z,58.30
2023-09-14T13:02:49.414Z,58.20
2023-09-14T13:05:21.868Z,58.20
2023-09-14T13:07:58.478Z,58.10
2023-09-14T13:10:33.132Z,57.60
2023-09-14T13:13:10.204Z,57.00
2023-09-14T13:15:40.837Z,56.40
2023-09-14T13:18:09.985Z,56.50
2023-09-14T13:20:46.684Z,56.70
2023-09-14T13:23:15.067Z,56.80
2023-09-14T13:25:43.042Z,56.20
2023-09-14T13:28:14.140Z,56.30
2023-09-14T13:30:42.813Z,56.20
2023-09-14T13:33:11.198Z,56.10
2023-09-14T13:35:39.693Z,55.40
2023-09-14T13:38:08.262Z,55.30
2023-09-14T13:40:36.118Z,55.40
2023-09-14T13:43:10.095Z,55.00
2023-09-14T13:45:38.080Z,55.00
2023-09-14T13:48:06.636Z,54.70
2023-09-14T13:50:34.787Z,54.60
2023-09-14T13:53:03.470Z,54.80
2023-09-14T13:55:31.506Z,54.50
2023-09-14T13:57:59.721Z,54.10
2023-09-14T14:00:27.698Z,53.80
2023-09-14T14:03:10.824Z,53.40
2023-09-14T14:06:36.768Z,52.30
2023-09-14T14:09:05.221Z,52.80
2023-09-14T14:11:33.060Z,52.90
2023-09-14T14:14:01.775Z,53.10
2023-09-14T14:16:29.660Z,53.10
2023-09-14T14:19:00.902Z,53.00
2023-09-14T14:21:30.652Z,53.10
2023-09-14T14:23:58.684Z,53.20
2023-09-14T14:26:27.096Z,52.70
2023-09-14T14:28:55.528Z,52.30
2023-09-14T14:31:23.420Z,51.90
2023-09-14T14:33:51.717Z,51.70
2023-09-14T14:36:19.957Z,51.60
2023-09-14T14:38:48.993Z,51.40
2023-09-14T14:41:37.548Z,51.00
2023-09-14T14:44:05.664Z,51.20
2023-09-14T14:46:33.576Z,51.10
2023-09-14T14:49:01.912Z,51.00
2023-09-14T14:51:29.811Z,51.00
2023-09-14T14:53:58.441Z,50.80
2023-09-14T14:56:26.520Z,50.40
2023-09-14T14:58:56.488Z,50.20
2023-09-14T15:01:25.098Z,49.90
2023-09-14T15:03:53.438Z,49.80
2023-09-14T15:06:21.595Z,49.80
2023-09-14T15:08:50.002Z,49.60
2023-09-14T15:11:18.091Z,49.00
2023-09-14T15:13:48.073Z,49.30
2023-09-14T15:16:16.580Z,49.40
2023-09-14T15:18:45.397Z,49.60
2023-09-14T15:21:14.737Z,49.60
2023-09-14T15:23:43.028Z,49.80
2023-09-14T15:26:10.831Z,50.00
2023-09-14T15:28:38.974Z,50.20
2023-09-14T15:31:18.549Z,50.20
2023-09-14T15:33:46.833Z,50.50
2023-09-14T15:36:16.180Z,50.60
2023-09-14T15:38:46.284Z,50.70
2023-09-14T15:41:15.711Z,50.60
2023-09-14T15:43:44.432Z,50.60
2023-09-14T15:46:14.866Z,50.80
2023-09-14T15:48:43.387Z,50.90
2023-09-14T15:51:11.799Z,51.00
2023-09-14T15:53:40.018Z,51.20
2023-09-14T15:56:10.302Z,51.30
2023-09-14T15:58:38.551Z,51.30
2023-09-14T16:01:06.538Z,51.40
2023-09-14T16:03:35.159Z,51.50
2023-09-14T16:06:03.262Z,51.40
2023-09-14T16:08:31.426Z,51.20
2023-09-14T16:10:59.223Z,51.10
2023-09-14T16:13:29.892Z,51.00
2023-09-14T16:15:58.032Z,50.90
2023-09-14T16:18:26.499Z,51.00
2023-09-14T16:20:55.110Z,51.20
2023-09-14T16:23:24.522Z,51.40
2023-09-14T16:25:52.611Z,51.40
2023-09-14T16:28:20.974Z,51.50
2023-09-14T16:30:51.331Z,51.50
2023-09-14T16:33:21.351Z,51.60
2023-09-14T16:35:57.349Z,51.50
2023-09-14T16:38:25.988Z,51.60
2023-09-14T16:40:54.314Z,51.80
2023-09-14T16:43:23.202Z,52.00
2023-09-14T16:45:51.918Z,52.10
2023-09-14T16:48:20.172Z,52.20
2023-09-14T16:50:49.978Z,52.20
2023-09-14T16:53:19.928Z,52.60
2023-09-14T16:55:49.206Z,53.30
2023-09-14T16:58:17.466Z,54.20
2023-09-14T17:00:45.509Z,54.90
2023-09-14T17:03:13.786Z,55.70
2023-09-14T17:05:41.920Z,56.40
2023-09-14T17:08:12.732Z,56.80
2023-09-14T17:10:40.597Z,57.20
2023-09-14T17:13:08.976Z,57.50
2023-09-14T17:15:38.264Z,57.80
2023-09-14T17:18:07.130Z,58.00
2023-09-14T17:20:35.324Z,58.30
2023-09-14T17:23:04.615Z,58.60
2023-09-14T17:25:32.655Z,58.90
2023-09-14T17:28:07.415Z,59.20
2023-09-14T17:30:35.816Z,59.40
2023-09-14T17:33:04.477Z,59.70
2023-09-14T17:35:32.261Z,60.00
2023-09-14T17:38:00.747Z,60.20
2023-09-14T17:40:28.556Z,60.60
2023-09-14T17:42:56.822Z,60.80
2023-09-14T17:45:24.810Z,61.10
2023-09-14T17:47:53.090Z,61.20
2023-09-14T17:50:21.064Z,61.40
2023-09-14T17:52:49.302Z,61.50
2023-09-14T17:55:17.390Z,61.70
2023-09-14T17:57:46.812Z,62.00
2023-09-14T18:00:15.873Z,62.20
2023-09-14T18:02:48.846Z,62.50
2023-09-14T18:05:17.095Z,62.70
2023-09-14T18:07:48.570Z,62.90
2023-09-14T18:10:16.360Z,63.20
2023-09-14T18:12:44.529Z,63.40
2023-09-14T18:15:15.996Z,63.70
2023-09-14T18:17:45.802Z,64.00
2023-09-14T18:20:16.601Z,64.30
2023-09-14T18:22:45.565Z,64.50
2023-09-14T18:25:14.146Z,64.80
2023-09-14T18:27:42.793Z,65.00
2023-09-14T18:30:11.062Z,65.40
2023-09-14T18:32:59.859Z,65.60
2023-09-14T18:35:28.459Z,66.10
2023-09-14T18:37:56.673Z,66.40
2023-09-14T18:40:27.129Z,66.80
2023-09-14T18:43:00.489Z,67.20
2023-09-14T18:45:28.518Z,67.50
2023-09-14T18:47:59.917Z,67.80
2023-09-14T18:50:27.921Z,68.90
2023-09-14T18:52:56.068Z,68.40
2023-09-14T18:55:24.070Z,68.70
2023-09-14T18:57:53.827Z,69.10
2023-09-14T19:00:22.096Z,69.60
2023-09-14T19:02:50.817Z,70.10
2023-09-14T19:05:19.329Z,70.70
2023-09-14T19:07:47.619Z,71.20
2023-09-14T19:10:16.529Z,71.80
2023-09-14T19:12:46.773Z,73.20
2023-09-14T19:15:15.098Z,73.10
2023-09-14T19:17:44.201Z,73.70
2023-09-14T19:20:12.544Z,74.50
2023-09-14T19:22:40.783Z,75.10
2023-09-14T19:25:08.847Z,75.90
2023-09-14T19:27:37.061Z,76.60
2023-09-14T19:30:05.841Z,77.20
2023-09-14T19:32:34.389Z,78.10
2023-09-14T19:35:02.693Z,79.10
2023-09-14T19:37:30.920Z,80.30
2023-09-14T19:39:58.842Z,81.40
2023-09-14T19:42:27.164Z,82.50
2023-09-14T19:44:59.501Z,83.60
2023-09-14T19:47:28.285Z,85.00
2023-09-14T19:49:56.706Z,86.30
2023-09-14T19:52:24.903Z,87.70
2023-09-14T19:54:52.778Z,89.10
2023-09-14T19:57:21.081Z,90.20
2023-09-14T19:59:49.715Z,91.10
2023-09-14T20:02:19.619Z,91.50
2023-09-14T20:04:48.210Z,92.10
2023-09-14T20:07:16.368Z,92.80
2023-09-14T20:09:44.255Z,93.50
2023-09-14T20:12:17.425Z,94.30
2023-09-14T20:14:46.375Z,95.10
2023-09-14T20:17:17.946Z,95.90
2023-09-14T20:19:45.754Z,96.70
2023-09-14T20:22:15.225Z,97.30
2023-09-14T20:24:46.231Z,97.60
2023-09-14T20:27:16.335Z,98.50
2023-09-14T20:29:44.138Z,99.10
2023-09-14T20:32:12.362Z,99.60
2023-09-14T20:34:40.309Z,99.90
2023-09-14T20:37:08.834Z,99.90
2023-09-14T20:39:36.789Z,99.90
2023-09-14T20:42:04.935Z,99.90
2023-09-14T20:44:32.733Z,99.90
2023-09-14T20:47:00.908Z,99.90
2023-09-14T20:49:29.238Z,99.90
2023-09-14T20:51:57.399Z,99.90
2023-09-14T20:54:25.302Z,99.90
2023-09-14T20:56:53.602Z,99.90
2023-09-14T20:59:21.552Z,99.90
2023-09-14T21:01:49.916Z,99.90
2023-09-14T21:04:17.682Z,99.90
2023-09-14T21:06:45.920Z,99.90
2023-09-14T21:09:16.106Z,99.90
2023-09-14T21:11:44.313Z,99.90
2023-09-14T21:14:12.180Z,99.90
2023-09-14T21:16:40.380Z,99.90
2023-09-14T21:19:08.878Z,99.90
2023-09-14T21:21:37.943Z,99.90
2023-09-14T21:24:06.068Z,99.90
2023-09-14T21:26:34.273Z,99.90
2023-09-14T21:29:02.250Z,99.90
2023-09-14T21:31:31.166Z,99.90
2023-09-14T21:33:59.129Z,99.90
2023-09-14T21:36:27.297Z,99.90
2023-09-14T21:38:55.354Z,99.90
2023-09-14T21:41:23.617Z,99.90
2023-09-14T21:43:51.497Z,99.90
2023-09-14T21:46:19.842Z,99.90
2023-09-14T21:48:48.166Z,99.90
2023-09-14T21:51:16.763Z,99.90
2023-09-14T21:53:44.703Z,99.90
2023-09-14T21:56:12.846Z,99.90
2023-09-14T21:58:40.881Z,99.90
2023-09-14T22:01:10.167Z,99.90
2023-09-14T22:03:50.661Z,99.90
2023-09-14T22:06:25.071Z,99.90
2023-09-14T22:08:54.172Z,99.90
2023-09-14T22:11:22.677Z,99.90
2023-09-14T22:13:51.484Z,99.90
2023-09-14T22:16:20.263Z,99.90
2023-09-14T22:18:48.960Z,99.90
2023-09-14T22:21:20.697Z,99.90
2023-09-14T22:23:48.926Z,99.90
2023-09-14T22:26:20.288Z,99.90
2023-09-14T22:28:48.402Z,99.90
2023-09-14T22:31:19.600Z,99.90
2023-09-14T22:33:47.640Z,99.90
2023-09-14T22:36:16.096Z,99.90
2023-09-14T22:38:43.944Z,99.90
2023-09-14T22:41:12.236Z,99.90
2023-09-14T22:43:42.562Z,99.90
2023-09-14T22:46:12.993Z,99.90
2023-09-14T22:48:44.484Z,99.90
2023-09-14T22:51:21.589Z,99.90
2023-09-14T22:53:49.557Z,99.90
2023-09-14T22:56:18.598Z,99.90
2023-09-14T22:58:50.794Z,99.90
2023-09-14T23:01:20.395Z,99.90
2023-09-14T23:03:49.020Z,99.90
2023-09-14T23:06:18.414Z,99.90
2023-09-14T23:08:46.863Z,99.90
2023-09-14T23:11:24.930Z,99.90
2023-09-14T23:13:54.484Z,99.90
2023-09-14T23:16:26.470Z,99.90
2023-09-14T23:18:54.876Z,99.90
2023-09-14T23:21:23.382Z,99.90
2023-09-14T23:23:51.325Z,99.90
2023-09-14T23:26:19.482Z,99.90
2023-09-14T23:28:47.602Z,99.90
2023-09-14T23:31:17.995Z,99.90
2023-09-14T23:33:45.944Z,99.90
2023-09-14T23:36:14.092Z,99.90
2023-09-14T23:38:41.961Z,99.90
2023-09-14T23:41:12.381Z,99.90
2023-09-14T23:43:41.823Z,99.90
2023-09-14T23:46:12.775Z,99.90
2023-09-14T23:48:42.102Z,99.90
2023-09-14T23:51:10.440Z,99.90
2023-09-14T23:53:39.294Z,99.90
2023-09-14T23:56:08.047Z,99.90
2023-09-14T23:58:37.099Z,99.90
